Time;durP1;ratioP1;P1;durP2;ratioP2;P2;SDS_P1;SDS_P2;PMS_P1;PMS_P2;Temp;Humidity;BMP_temperature;BMP_pressure;BME280_temperature;BME280_humidity;BME280_pressure;Samples;Min_cycle;Max_cycle;Signal;HPM_P1;HPM_P2
2022/01/05 00:01:51;;;;;;;1.20;0.90;;;;;;;4.82;100.00;152601.56;5009951;28;20442;-75
2022/01/05 00:04:28;;;;;;;1.40;1.10;;;;;;;4.79;100.00;152592.59;5008631;28;20936;-75
2022/01/05 00:07:04;;;;;;;1.30;0.80;;;;;;;4.80;100.00;152596.44;4989094;28;20438;-75
2022/01/05 00:09:39;;;;;;;1.33;0.80;;;;;;;4.80;100.00;152596.44;4988892;28;20987;-75
2022/01/05 00:12:15;;;;;;;1.03;0.80;;;;;;;4.82;100.00;152601.56;4972681;28;20438;-76
2022/01/05 00:14:50;;;;;;;1.07;0.80;;;;;;;4.80;100.00;152595.13;4972818;28;20453;-75
2022/01/05 00:17:27;;;;;;;1.20;0.90;;;;;;;4.81;100.00;152599.03;4957694;28;20936;-75
2022/01/05 00:20:05;;;;;;;5.73;0.80;;;;;;;4.82;100.00;152601.56;4972617;28;20442;-75
2022/01/05 00:22:40;;;;;;;1.20;0.80;;;;;;;4.79;100.00;152593.84;4975102;28;20484;-75
2022/01/05 00:25:16;;;;;;;0.87;0.53;;;;;;;4.75;100.00;152583.56;5008679;28;20456;-75
2022/01/05 00:27:52;;;;;;;1.10;0.70;;;;;;;4.76;100.00;152586.16;5008302;28;20809;-76
2022/01/05 00:30:27;;;;;;;0.93;0.67;;;;;;;4.72;100.00;152575.81;5008370;28;20524;-75
2022/01/05 00:33:03;;;;;;;1.00;0.70;;;;;;;4.74;100.00;152579.66;5008178;28;20476;-75
2022/01/05 00:35:40;;;;;;;0.90;0.67;;;;;;;4.70;100.00;152570.66;4999327;28;20449;-75
2022/01/05 00:38:15;;;;;;;1.47;0.80;;;;;;;4.69;100.00;152568.06;4994761;28;20503;-75
2022/01/05 00:40:51;;;;;;;1.03;0.70;;;;;;;4.65;100.00;152557.78;4976557;28;20462;-75
2022/01/05 00:43:27;;;;;;;0.80;0.50;;;;;;;4.64;100.00;152555.19;5008084;28;20906;-75
2022/01/05 00:46:02;;;;;;;1.00;0.80;;;;;;;4.62;100.00;152550.06;4991907;28;20459;-75
2022/01/05 00:48:38;;;;;;;0.97;0.60;;;;;;;4.63;100.00;152552.59;5007622;28;20477;-75
2022/01/05 00:51:16;;;;;;;0.70;0.40;;;;;;;4.59;100.00;152542.31;5008152;28;20460;-75
2022/01/05 00:53:51;;;;;;;1.20;0.60;;;;;;;4.61;100.00;152546.16;4976473;28;20494;-75
2022/01/05 00:56:27;;;;;;;0.80;0.40;;;;;;;4.65;100.00;152557.78;4976471;28;20452;-75
2022/01/05 00:59:03;;;;;;;0.93;0.57;;;;;;;4.68;100.00;152564.22;5007924;28;20437;-75
2022/01/05 01:01:39;;;;;;;3.43;0.60;;;;;;;4.67;100.00;152562.94;5008005;28;20436;-76
2022/01/05 01:04:14;;;;;;;0.80;0.50;;;;;;;4.64;100.00;152555.19;5009897;28;20447;-75
2022/01/05 01:06:51;;;;;;;0.97;0.40;;;;;;;4.56;100.00;152534.59;5014016;28;20474;-75
2022/01/05 01:09:27;;;;;;;1.00;0.63;;;;;;;4.63;100.00;152552.59;5031718;28;20804;-75
2022/01/05 01:12:04;;;;;;;0.90;0.50;;;;;;;4.62;100.00;152550.06;5011735;28;20959;-75
2022/01/05 01:14:39;;;;;;;0.80;0.40;;;;;;;4.60;100.00;152544.91;5012872;28;20445;-75
2022/01/05 01:17:15;;;;;;;0.70;0.33;;;;;;;4.63;100.00;152552.59;5013089;28;20452;-75
2022/01/05 01:19:50;;;;;;;1.23;0.50;;;;;;;4.64;100.00;152555.19;4979932;28;20481;-75
2022/01/05 01:22:28;;;;;;;1.03;0.50;;;;;;;4.64;100.00;152553.91;5011759;28;20443;-75
2022/01/05 01:25:05;;;;;;;0.80;0.40;;;;;;;4.67;100.00;152561.63;5013237;28;20539;-76
2022/01/05 01:27:42;;;;;;;0.73;0.40;;;;;;;4.67;100.00;152562.94;5010274;28;20445;-75
2022/01/05 01:30:18;;;;;;;0.80;0.33;;;;;;;4.62;100.00;152550.06;5028116;28;20499;-75
2022/01/05 01:32:54;;;;;;;1.20;0.40;;;;;;;4.65;100.00;152557.78;5011574;28;20445;-75
2022/01/05 01:35:30;;;;;;;0.90;0.40;;;;;;;4.65;100.00;152557.78;5005016;28;20805;-75
2022/01/05 01:38:07;;;;;;;0.63;0.27;;;;;;;4.68;100.00;152564.22;4991748;28;20936;-75
2022/01/05 01:40:43;;;;;;;1.00;0.50;;;;;;;4.69;100.00;152568.06;4991914;28;20449;-76
2022/01/05 01:43:18;;;;;;;0.60;0.30;;;;;;;4.65;100.00;152557.78;5011317;28;20931;-75
2022/01/05 01:45:54;;;;;;;0.70;0.30;;;;;;;4.67;100.00;152561.63;5011455;28;20443;-75
2022/01/05 01:48:30;;;;;;;0.60;0.37;;;;;;;4.71;100.00;152573.22;5010677;28;20471;-75
2022/01/05 01:51:05;;;;;;;1.00;0.40;;;;;;;4.73;100.00;152578.41;5012675;28;20851;-75
2022/01/05 01:53:42;;;;;;;0.80;0.40;;;;;;;4.80;100.00;152595.13;4995912;28;20413;-75
2022/01/05 01:56:19;;;;;;;0.70;0.40;;;;;;;4.79;100.00;152593.84;4994879;28;20433;-75
2022/01/05 01:58:54;;;;;;;0.70;0.50;;;;;;;4.80;100.00;152596.44;4995792;28;20499;-75
2022/01/05 02:01:30;;;;;;;0.70;0.30;;;;;;;4.81;100.00;152597.72;5010921;28;20437;-75
2022/01/05 02:04:05;;;;;;;2.20;0.73;;;;;;;4.81;100.00;152599.03;5027233;28;20463;-75
2022/01/05 02:06:41;;;;;;;0.70;0.37;;;;;;;4.79;100.00;152593.84;4995692;28;20508;-75
2022/01/05 02:09:18;;;;;;;0.70;0.40;;;;;;;4.81;100.00;152597.72;5010838;28;20894;-75
2022/01/05 02:11:53;;;;;;;0.60;0.30;;;;;;;4.84;100.00;152606.72;4979381;28;20444;-75
2022/01/05 02:14:29;;;;;;;0.77;0.50;;;;;;;4.84;100.00;152606.72;4995583;28;20550;-75
2022/01/05 02:17:11;;;;;;;0.70;0.40;;;;;;;4.84;100.00;152606.72;5009673;28;20440;-75
2022/01/05 02:19:46;;;;;;;0.60;0.30;;;;;;;4.80;100.00;152596.44;4978933;28;20536;-75
2022/01/05 02:22:23;;;;;;;0.80;0.50;;;;;;;4.90;100.00;152622.19;5027178;28;20428;-75
2022/01/05 02:24:59;;;;;;;0.87;0.40;;;;;;;4.85;100.00;152609.31;5026966;28;20484;-75
2022/01/05 02:27:34;;;;;;;0.80;0.40;;;;;;;4.84;100.00;152606.72;5027053;28;20464;-76
2022/01/05 02:30:12;;;;;;;0.77;0.43;;;;;;;4.89;100.00;152619.66;4994058;28;20476;-75
2022/01/05 02:32:48;;;;;;;1.00;0.40;;;;;;;4.90;100.00;152622.19;5009407;28;20495;-75
2022/01/05 02:35:24;;;;;;;0.93;0.43;;;;;;;4.82;100.00;152601.56;4978746;28;20935;-75
2022/01/05 02:38:01;;;;;;;1.33;0.40;;;;;;;4.86;100.00;152611.91;4993803;28;20531;-75
2022/01/05 02:40:36;;;;;;;0.70;0.30;;;;;;;4.87;100.00;152614.47;5010430;28;20452;-75
2022/01/05 02:43:12;;;;;;;0.80;0.50;;;;;;;4.91;100.00;152624.78;5004822;28;20422;-76
2022/01/05 02:45:48;;;;;;;0.90;0.40;;;;;;;4.89;100.00;152619.66;4974493;28;20456;-75
2022/01/05 02:48:23;;;;;;;0.90;0.40;;;;;;;4.90;100.00;152620.91;4973995;28;20473;-76
2022/01/05 02:51:00;;;;;;;1.20;0.60;;;;;;;4.86;100.00;152611.91;4974530;28;20480;-75
2022/01/05 02:53:36;;;;;;;0.70;0.37;;;;;;;4.85;100.00;152609.31;4974888;28;20434;-76
2022/01/05 02:56:12;;;;;;;0.90;0.50;;;;;;;4.90;100.00;152622.19;4990565;28;20873;-75
2022/01/05 02:58:47;;;;;;;0.80;0.40;;;;;;;4.87;100.00;152614.47;4974333;28;20441;-76
2022/01/05 03:01:23;;;;;;;0.90;0.50;;;;;;;4.91;100.00;152624.78;4974153;28;20477;-75
2022/01/05 03:03:59;;;;;;;0.60;0.30;;;;;;;4.86;100.00;152611.91;4990424;28;20444;-75
2022/01/05 03:06:34;;;;;;;0.90;0.50;;;;;;;4.83;100.00;152604.16;4976267;28;20548;-76
2022/01/05 03:09:11;;;;;;;0.87;0.40;;;;;;;4.84;100.00;152606.72;5014086;28;20578;-76
2022/01/05 03:11:47;;;;;;;1.10;0.60;;;;;;;4.86;100.00;152610.63;5003615;28;20440;-75
2022/01/05 03:14:22;;;;;;;1.50;0.57;;;;;;;4.86;100.00;152610.63;4993360;28;20472;-75
2022/01/05 03:16:58;;;;;;;0.70;0.50;;;;;;;4.82;100.00;152601.56;4994337;28;20417;-75
2022/01/05 03:19:33;;;;;;;0.63;0.30;;;;;;;4.81;100.00;152597.72;5009402;28;20440;-75
2022/01/05 03:22:09;;;;;;;1.50;0.53;;;;;;;4.75;100.00;152582.25;4993373;28;20450;-75
2022/01/05 03:24:46;;;;;;;0.73;0.47;;;;;;;4.70;100.00;152570.66;5008241;28;20448;-75
2022/01/05 03:27:21;;;;;;;0.83;0.40;;;;;;;4.78;100.00;152591.28;5009175;28;20438;-76
2022/01/05 03:29:56;;;;;;;0.70;0.40;;;;;;;4.78;100.00;152591.28;5007828;28;20472;-75
2022/01/05 03:32:44;;;;;;;0.90;0.50;;;;;;;4.78;100.00;152591.28;5009233;28;20451;-75
2022/01/05 03:35:20;;;;;;;0.67;0.40;;;;;;;4.80;100.00;152596.44;5009270;28;20928;-75
2022/01/05 03:37:56;;;;;;;0.67;0.40;;;;;;;4.76;100.00;152586.16;5025707;28;20448;-75
2022/01/05 03:40:34;;;;;;;0.80;0.50;;;;;;;4.71;100.00;152573.22;5009228;28;20506;-75
2022/01/05 03:43:10;;;;;;;0.90;0.37;;;;;;;4.71;100.00;152573.22;4989583;28;20449;-75
2022/01/05 03:45:47;;;;;;;0.60;0.30;;;;;;;4.70;100.00;152569.38;4968207;28;20453;-75
2022/01/05 03:48:23;;;;;;;3.13;0.47;;;;;;;4.73;100.00;152577.13;4992317;28;20484;-76
2022/01/05 03:50:58;;;;;;;0.80;0.50;;;;;;;4.71;100.00;152573.22;5008997;28;20479;-75
2022/01/05 03:53:34;;;;;;;0.70;0.30;;;;;;;4.75;100.00;152583.56;5008935;28;20820;-75
2022/01/05 03:56:11;;;;;;;0.60;0.33;;;;;;;4.68;100.00;152564.22;4992749;28;20488;-75
2022/01/05 03:58:46;;;;;;;0.60;0.30;;;;;;;4.70;100.00;152570.66;4993665;28;20421;-75
2022/01/05 04:01:22;;;;;;;0.60;0.30;;;;;;;4.66;100.00;152560.34;4992560;28;20467;-75
2022/01/05 04:03:57;;;;;;;0.60;0.30;;;;;;;4.70;100.00;152569.38;5008824;28;20773;-75
2022/01/05 04:06:33;;;;;;;1.43;0.33;;;;;;;4.71;100.00;152571.97;4994445;28;20419;-75
2022/01/05 04:09:10;;;;;;;1.00;0.37;;;;;;;4.71;100.00;152573.22;5013157;28;21567;-75
2022/01/05 04:11:47;;;;;;;0.60;0.37;;;;;;;4.72;100.00;152575.81;4996509;28;20820;-76
2022/01/05 04:14:22;;;;;;;0.70;0.40;;;;;;;4.71;100.00;152573.22;5013107;28;20458;-75
2022/01/05 04:16:58;;;;;;;1.00;0.40;;;;;;;4.72;100.00;152575.81;5012679;28;20431;-75
2022/01/05 04:19:35;;;;;;;0.80;0.50;;;;;;;4.72;100.00;152575.81;5004041;28;20459;-76
2022/01/05 04:22:10;;;;;;;0.93;0.20;;;;;;;4.76;100.00;152586.16;5025010;28;20441;-75
2022/01/05 04:24:46;;;;;;;0.70;0.30;;;;;;;4.77;100.00;152588.69;5008685;28;20583;-75
2022/01/05 04:27:23;;;;;;;1.03;0.50;;;;;;;4.71;100.00;152573.22;5008261;28;20944;-75
2022/01/05 04:29:58;;;;;;;0.70;0.40;;;;;;;4.75;100.00;152583.56;5008205;28;20484;-76
2022/01/05 04:32:35;;;;;;;0.80;0.40;;;;;;;4.68;100.00;152565.53;5008165;28;20444;-75
2022/01/05 04:35:13;;;;;;;0.70;0.40;;;;;;;4.65;100.00;152557.78;4993557;28;20931;-75
2022/01/05 04:37:49;;;;;;;1.07;0.30;;;;;;;4.63;100.00;152552.59;4973380;28;20450;-75
2022/01/05 04:40:24;;;;;;;0.77;0.47;;;;;;;4.67;100.00;152562.94;4971988;28;20444;-75
2022/01/05 04:43:01;;;;;;;0.90;0.40;;;;;;;4.70;100.00;152570.66;4992125;28;20452;-75
2022/01/05 04:45:37;;;;;;;0.80;0.40;;;;;;;4.69;100.00;152568.06;5007953;28;20451;-75
2022/01/05 04:48:12;;;;;;;0.67;0.37;;;;;;;4.67;100.00;152561.63;5007899;28;20855;-75
2022/01/05 04:50:48;;;;;;;0.80;0.30;;;;;;;4.65;100.00;152557.78;5008296;28;20484;-75
2022/01/05 04:53:33;;;;;;;0.80;0.40;;;;;;;4.62;100.00;152550.06;5007836;28;20483;-76
2022/01/05 04:56:09;;;;;;;0.67;0.30;;;;;;;4.63;100.00;152551.34;5009477;28;20560;-75
2022/01/05 04:58:45;;;;;;;0.70;0.30;;;;;;;4.60;100.00;152544.91;5008048;28;20449;-76
2022/01/05 05:01:21;;;;;;;0.97;0.50;;;;;;;4.62;100.00;152548.75;4976646;28;20523;-75
2022/01/05 05:03:56;;;;;;;0.67;0.37;;;;;;;4.63;100.00;152552.59;4992802;28;20417;-76
2022/01/05 05:06:32;;;;;;;0.70;0.40;;;;;;;4.58;100.00;152539.72;5006635;28;20943;-75
2022/01/05 05:09:07;;;;;;;1.00;0.50;;;;;;;4.57;100.00;152537.19;4985166;28;20447;-76
2022/01/05 05:11:43;;;;;;;0.70;0.40;;;;;;;4.53;100.00;152526.84;5009298;28;20471;-75
2022/01/05 05:14:20;;;;;;;0.70;0.40;;;;;;;4.54;100.00;152529.44;5006603;28;20454;-75
2022/01/05 05:16:55;;;;;;;0.60;0.40;;;;;;;4.53;100.00;152526.84;5007593;28;20437;-75
2022/01/05 05:19:31;;;;;;;0.60;0.30;;;;;;;4.54;100.00;152529.44;5007743;28;20447;-75
2022/01/05 05:22:07;;;;;;;1.00;0.60;;;;;;;4.58;100.00;152539.72;5007830;28;20433;-75
2022/01/05 05:24:42;;;;;;;0.70;0.50;;;;;;;4.58;100.00;152539.72;5007674;28;20445;-75
2022/01/05 05:27:18;;;;;;;0.90;0.60;;;;;;;4.59;100.00;152541.03;5007569;28;20520;-75
2022/01/05 05:29:55;;;;;;;1.10;0.90;;;;;;;4.55;100.00;152532.03;4976360;28;20824;-75
2022/01/05 05:32:30;;;;;;;0.80;0.60;;;;;;;4.19;100.00;152439.25;5007566;28;20477;-75
2022/01/05 05:35:07;;;;;;;1.20;0.80;;;;;;;3.80;100.00;152338.81;5006610;28;20451;-75
2022/01/05 05:37:42;;;;;;;1.23;0.70;;;;;;;3.52;100.00;152269.28;5003305;28;20445;-75
2022/01/05 05:40:18;;;;;;;0.87;0.50;;;;;;;3.29;100.00;152210.09;4988266;28;20918;-75
2022/01/05 05:42:54;;;;;;;1.00;0.80;;;;;;;3.08;100.00;152156.06;4989593;28;20459;-75
2022/01/05 05:45:31;;;;;;;1.23;0.80;;;;;;;3.02;100.00;152140.59;5007278;28;20450;-75
2022/01/05 05:48:07;;;;;;;1.40;0.80;;;;;;;3.02;100.00;152140.59;5007330;28;21054;-75
2022/01/05 05:50:42;;;;;;;1.00;0.70;;;;;;;2.83;100.00;152091.75;4992423;28;20480;-76
2022/01/05 05:53:18;;;;;;;0.93;0.60;;;;;;;2.81;100.00;152086.56;5011305;28;20438;-75
2022/01/05 05:55:53;;;;;;;1.70;1.00;;;;;;;2.73;100.00;152065.97;5011303;28;20442;-75
2022/01/05 05:58:29;;;;;;;1.10;0.90;;;;;;;2.59;100.00;152031.28;5009676;28;20466;-75
2022/01/05 06:01:06;;;;;;;1.60;1.10;;;;;;;2.66;100.00;152048.00;5009552;28;20454;-75
2022/01/05 06:03:42;;;;;;;1.70;1.10;;;;;;;2.70;100.00;152059.56;5027435;28;20537;-75
2022/01/05 06:06:17;;;;;;;1.60;1.30;;;;;;;2.59;100.00;152031.28;5009760;28;20434;-75
2022/01/05 06:08:53;;;;;;;1.93;1.13;;;;;;;2.64;100.00;152042.84;5033796;28;20947;-75
2022/01/05 06:11:29;;;;;;;1.90;1.20;;;;;;;2.70;100.00;152058.31;5030466;28;20477;-75
2022/01/05 06:14:05;;;;;;;2.07;1.20;;;;;;;2.65;100.00;152045.44;5030341;28;20524;-75
2022/01/05 06:16:43;;;;;;;1.83;1.50;;;;;;;2.60;100.00;152032.53;5030375;28;20433;-75
2022/01/05 06:19:18;;;;;;;1.80;1.23;;;;;;;2.72;100.00;152064.75;5015408;28;20445;-76
2022/01/05 06:21:54;;;;;;;1.90;1.17;;;;;;;2.73;100.00;152065.97;5027094;28;20521;-75
2022/01/05 06:24:30;;;;;;;2.23;1.07;;;;;;;2.74;100.00;152069.88;5010507;28;20454;-75
2022/01/05 06:27:05;;;;;;;1.63;1.47;;;;;;;2.71;100.00;152060.84;5010629;28;20446;-75
2022/01/05 06:29:41;;;;;;;2.30;1.40;;;;;;;2.74;100.00;152068.56;5010398;28;20454;-75
2022/01/05 06:32:18;;;;;;;2.07;1.10;;;;;;;2.82;100.00;152090.44;5010489;28;20446;-75
2022/01/05 06:34:53;;;;;;;1.87;1.43;;;;;;;2.82;100.00;152089.16;4978763;28;20458;-75
2022/01/05 06:37:29;;;;;;;1.50;1.17;;;;;;;2.87;100.00;152103.31;5010305;28;20526;-75
2022/01/05 06:40:06;;;;;;;2.60;1.70;;;;;;;2.82;100.00;152090.44;5010237;28;20852;-75
2022/01/05 06:42:42;;;;;;;1.90;1.20;;;;;;;2.86;100.00;152099.47;4993963;28;20537;-75
2022/01/05 06:45:18;;;;;;;2.70;1.47;;;;;;;2.76;100.00;152073.72;4993605;28;20454;-75
2022/01/05 06:47:55;;;;;;;2.03;1.10;;;;;;;2.76;100.00;152073.72;5010017;28;20516;-75
2022/01/05 06:50:31;;;;;;;1.77;1.40;;;;;;;2.79;100.00;152082.72;4995270;28;20564;-76
2022/01/05 06:53:06;;;;;;;1.50;1.10;;;;;;;2.80;100.00;152085.31;5009767;28;20445;-75
2022/01/05 06:55:42;;;;;;;3.07;1.40;;;;;;;2.73;100.00;152065.97;5009935;28;20452;-75
2022/01/05 06:58:18;;;;;;;1.50;1.10;;;;;;;2.64;100.00;152044.16;4994807;28;20415;-75
2022/01/05 07:00:55;;;;;;;2.50;1.50;;;;;;;2.63;100.00;152040.25;4995145;28;20438;-75
2022/01/05 07:03:32;;;;;;;1.77;1.33;;;;;;;2.65;100.00;152046.69;5008040;28;20864;-75
2022/01/05 07:06:07;;;;;;;2.07;1.70;;;;;;;2.69;100.00;152055.72;5011324;28;20482;-75
2022/01/05 07:08:43;;;;;;;1.50;1.10;;;;;;;2.64;100.00;152044.16;5012892;28;20443;-75
2022/01/05 07:11:18;;;;;;;1.60;1.20;;;;;;;2.65;100.00;152046.69;5009681;28;21040;-75
2022/01/05 07:13:54;;;;;;;1.67;1.27;;;;;;;2.63;100.00;152041.56;5009281;28;20513;-75
2022/01/05 07:16:30;;;;;;;2.33;1.33;;;;;;;2.73;100.00;152065.97;5009549;28;20477;-75
2022/01/05 07:19:06;;;;;;;2.60;1.40;;;;;;;2.75;100.00;152072.47;5009421;28;20442;-75
2022/01/05 07:21:42;;;;;;;1.60;1.23;;;;;;;2.77;100.00;152076.28;5010719;28;20435;-75
2022/01/05 07:24:19;;;;;;;1.80;1.30;;;;;;;2.73;100.00;152065.97;5009387;28;20445;-75
2022/01/05 07:26:55;;;;;;;1.30;1.20;;;;;;;2.79;100.00;152081.44;5009258;28;20447;-75
2022/01/05 07:29:30;;;;;;;1.40;1.30;;;;;;;2.71;100.00;152062.16;4992944;28;20511;-75
2022/01/05 07:32:06;;;;;;;1.47;1.27;;;;;;;2.71;100.00;152060.84;5009495;28;20470;-75
2022/01/05 07:34:43;;;;;;;1.60;1.40;;;;;;;2.69;100.00;152055.72;4994190;28;20434;-75
2022/01/05 07:37:19;;;;;;;1.70;1.43;;;;;;;2.70;100.00;152059.56;5009333;28;20443;-75
2022/01/05 07:39:54;;;;;;;2.07;1.30;;;;;;;2.63;100.00;152040.25;4999971;28;20466;-75
2022/01/05 07:42:33;;;;;;;2.10;1.53;;;;;;;2.61;100.00;152035.13;5004019;28;20438;-76
2022/01/05 07:45:11;;;;;;;1.93;1.67;;;;;;;2.58;100.00;152027.41;4973403;28;20479;-75
2022/01/05 07:47:47;;;;;;;1.97;1.47;;;;;;;2.56;100.00;152023.56;4958029;28;20476;-75
2022/01/05 07:50:24;;;;;;;4.00;2.20;;;;;;;2.45;100.00;151996.56;4988853;28;20482;-75
2022/01/05 07:53:01;;;;;;;2.83;1.80;;;;;;;2.32;100.00;151963.13;4989063;28;20446;-75
2022/01/05 07:55:37;;;;;;;2.10;1.90;;;;;;;2.38;100.00;151978.53;4989144;28;20443;-75
2022/01/05 07:58:12;;;;;;;3.90;2.30;;;;;;;2.46;100.00;151999.09;4989221;28;20955;-75
2022/01/05 08:00:48;;;;;;;2.53;1.70;;;;;;;2.42;100.00;151988.84;4984842;28;20441;-75
2022/01/05 08:03:25;;;;;;;5.53;2.23;;;;;;;2.35;100.00;151970.84;4992429;28;20930;-76
2022/01/05 08:06:02;;;;;;;3.00;2.20;;;;;;;2.31;100.00;151960.53;4994021;28;20437;-76
2022/01/05 08:08:38;;;;;;;2.73;1.97;;;;;;;2.34;100.00;151968.25;4992286;28;20433;-75
2022/01/05 08:11:14;;;;;;;4.20;2.20;;;;;;;2.29;100.00;151955.41;5023047;28;20967;-75
2022/01/05 08:13:52;;;;;;;3.57;2.63;;;;;;;2.31;100.00;151960.53;5027523;28;20437;-75
2022/01/05 08:16:27;;;;;;;4.07;2.30;;;;;;;2.39;100.00;151981.13;5012952;28;20834;-75
2022/01/05 08:19:03;;;;;;;4.20;2.70;;;;;;;2.36;100.00;151973.41;4992101;28;20429;-75
2022/01/05 08:21:40;;;;;;;6.67;2.83;;;;;;;2.33;100.00;151965.66;5008316;28;20774;-76
2022/01/05 08:24:16;;;;;;;2.90;2.60;;;;;;;2.28;100.00;151952.81;5007227;28;20445;-75
2022/01/05 08:26:51;;;;;;;4.27;3.33;;;;;;;2.28;100.00;151951.53;5008276;28;20529;-75
2022/01/05 08:29:27;;;;;;;4.00;2.90;;;;;;;2.31;100.00;151960.53;4991934;28;20553;-75
2022/01/05 08:32:04;;;;;;;4.40;2.70;;;;;;;2.32;100.00;151963.13;4993079;28;20457;-75
2022/01/05 08:34:40;;;;;;;6.20;2.50;;;;;;;2.25;100.00;151945.09;5024701;28;20452;-76
2022/01/05 08:37:17;;;;;;;3.03;2.40;;;;;;;2.26;100.00;151946.41;5007068;28;20940;-76
2022/01/05 08:39:53;;;;;;;4.47;2.63;;;;;;;2.20;100.00;151932.25;4973415;28;20450;-76
2022/01/05 08:42:28;;;;;;;3.67;3.00;;;;;;;2.15;100.00;151918.09;4991446;28;20495;-76
2022/01/05 08:45:05;;;;;;;3.10;2.50;;;;;;;2.19;100.00;151929.72;4991898;28;20804;-76
2022/01/05 08:47:40;;;;;;;6.10;3.03;;;;;;;2.18;99.34;151927.13;4991436;28;20477;-76
2022/01/05 08:50:17;;;;;;;4.07;2.90;;;;;;;2.21;100.00;151934.84;4991619;28;20434;-76
2022/01/05 08:52:56;;;;;;;3.50;2.70;;;;;;;2.22;100.00;151936.13;4976419;28;20481;-76
2022/01/05 08:55:35;;;;;;;2.53;2.30;;;;;;;2.25;100.00;151943.84;5006848;28;20441;-76
2022/01/05 08:58:11;;;;;;;6.30;3.03;;;;;;;2.21;99.41;151934.84;5006884;28;20426;-76
2022/01/05 09:00:48;;;;;;;3.47;2.53;;;;;;;2.09;98.03;151903.94;5008151;28;20449;-76
2022/01/05 09:03:24;;;;;;;4.43;2.63;;;;;;;1.99;96.91;151878.25;5006750;28;20429;-76
2022/01/05 09:06:03;;;;;;;7.90;2.27;;;;;;;2.05;98.28;151893.69;4992945;28;20445;-76
2022/01/05 09:08:40;;;;;;;5.30;2.50;;;;;;;2.06;98.59;151896.28;5024345;28;20503;-76
2022/01/05 09:11:15;;;;;;;6.00;2.40;;;;;;;2.08;98.23;151901.41;5004636;28;20460;-76
2022/01/05 09:13:51;;;;;;;3.60;2.60;;;;;;;2.22;99.68;151936.13;5012548;28;20445;-76
2022/01/05 09:16:27;;;;;;;2.97;2.10;;;;;;;2.25;99.15;151945.09;5027482;28;20446;-76
2022/01/05 09:19:03;;;;;;;5.13;2.50;;;;;;;2.33;99.35;151965.66;5012239;28;20537;-76
2022/01/05 09:21:38;;;;;;;4.43;2.27;;;;;;;2.43;98.96;151990.13;5027413;28;20795;-76
2022/01/05 09:24:15;;;;;;;3.13;2.00;;;;;;;2.51;97.74;152009.41;5011178;28;20445;-76
2022/01/05 09:26:51;;;;;;;4.30;2.30;;;;;;;2.42;97.06;151988.84;5011647;28;20544;-76
2022/01/05 09:29:27;;;;;;;4.00;2.27;;;;;;;2.43;96.55;151991.44;5011646;28;20929;-76
2022/01/05 09:32:06;;;;;;;5.20;2.63;;;;;;;2.42;97.00;151987.53;5011462;28;20870;-76
2022/01/05 09:34:43;;;;;;;2.93;1.83;;;;;;;2.36;97.08;151973.41;5010090;28;20443;-76
2022/01/05 09:37:23;;;;;;;4.80;2.70;;;;;;;2.44;98.44;151992.69;4995193;28;20441;-76
2022/01/05 09:42:54;;;;;;;2.00;1.80;;;;;;;2.50;94.50;152006.84;5027554;28;20817;-76
2022/01/05 09:45:30;;;;;;;3.07;2.43;;;;;;;2.54;95.18;152018.44;5011275;28;20457;-76
2022/01/05 09:48:18;;;;;;;4.03;2.30;;;;;;;2.65;96.02;152046.69;5010995;28;20564;-76
2022/01/05 09:50:58;;;;;;;4.00;1.90;;;;;;;2.68;96.05;152054.41;5010001;28;20447;-77
2022/01/05 09:53:34;;;;;;;4.00;2.30;;;;;;;2.73;96.72;152067.28;4995080;28;20498;-76
2022/01/05 09:56:12;;;;;;;4.80;2.20;;;;;;;2.63;96.55;152040.25;5011394;28;20516;-76
2022/01/05 09:58:47;;;;;;;3.93;2.70;;;;;;;2.65;93.75;152045.44;4994570;28;20463;-76
2022/01/05 10:01:25;;;;;;;4.63;2.57;;;;;;;2.71;95.46;152060.84;5010952;28;20837;-76
2022/01/05 10:04:01;;;;;;;3.10;2.53;;;;;;;2.74;95.91;152068.56;5027610;28;20434;-76
2022/01/05 10:06:38;;;;;;;3.17;2.33;;;;;;;2.77;97.13;152077.59;5010885;28;20517;-76
2022/01/05 10:09:14;;;;;;;3.17;1.90;;;;;;;2.73;96.29;152065.97;5010925;28;20484;-76
2022/01/05 10:11:51;;;;;;;2.80;2.07;;;;;;;2.60;92.67;152033.84;5028676;28;20473;-76
2022/01/05 10:14:27;;;;;;;3.87;2.37;;;;;;;2.58;92.72;152027.41;5015226;28;20446;-76
2022/01/05 10:17:05;;;;;;;4.30;2.20;;;;;;;2.58;91.83;152027.41;5018001;28;20457;-76
2022/01/05 10:19:41;;;;;;;3.73;2.40;;;;;;;2.53;90.38;152015.84;5010630;28;20459;-75
2022/01/05 10:22:32;;;;;;;3.20;2.43;;;;;;;2.41;95.32;151986.25;4995849;28;20497;-75
2022/01/05 10:25:09;;;;;;;2.60;2.00;;;;;;;2.39;94.34;151979.81;5027232;28;20865;-76
2022/01/05 10:27:57;;;;;;;4.63;2.23;;;;;;;2.40;92.38;151982.41;5011717;28;20435;-76
2022/01/05 10:30:38;;;;;;;4.00;2.27;;;;;;;2.36;94.31;151973.41;4995336;28;20847;-76
2022/01/05 10:33:13;;;;;;;3.17;2.23;;;;;;;2.30;92.68;151957.94;5010163;28;20474;-76
2022/01/05 10:35:56;;;;;;;5.50;2.60;;;;;;;2.32;93.24;151963.13;5010553;28;20821;-76
2022/01/05 10:38:31;;;;;;;6.40;2.10;;;;;;;2.24;90.64;151942.56;5009297;28;20435;-76
2022/01/05 10:41:16;;;;;;;3.00;1.97;;;;;;;2.19;87.90;151928.41;5007541;28;20938;-75
2022/01/05 10:44:15;;;;;;;3.37;1.80;;;;;;;2.26;89.54;151947.69;5010091;28;20435;-76
2022/01/05 10:46:52;;;;;;;2.40;1.67;;;;;;;2.34;90.21;151966.97;4993810;28;20433;-76
2022/01/05 10:49:31;;;;;;;4.40;1.50;;;;;;;2.37;89.34;151974.69;5010039;28;20441;-76
2022/01/05 10:52:20;;;;;;;3.33;2.30;;;;;;;2.30;91.85;151956.72;4990267;28;20540;-76
2022/01/05 10:54:57;;;;;;;2.70;1.90;;;;;;;2.36;92.20;151972.09;4974257;28;20859;-75
2022/01/05 10:57:33;;;;;;;6.07;2.10;;;;;;;2.36;86.36;151973.41;4974134;28;20822;-76
2022/01/05 11:00:11;;;;;;;5.53;1.60;;;;;;;2.36;86.09;151972.09;4959335;28;20451;-75
2022/01/05 11:02:46;;;;;;;4.40;1.67;;;;;;;2.34;86.96;151966.97;4990250;28;20862;-76
2022/01/05 11:05:22;;;;;;;6.93;2.10;;;;;;;2.31;83.74;151960.53;4990509;28;20447;-76
2022/01/05 11:08:08;;;;;;;4.67;1.70;;;;;;;2.30;87.80;151956.72;5001427;28;20453;-76
2022/01/05 11:10:43;;;;;;;3.40;1.90;;;;;;;2.38;87.37;151977.28;5009771;28;20447;-76
2022/01/05 11:13:19;;;;;;;3.60;1.63;;;;;;;2.42;85.03;151988.84;5008898;28;20461;-76
2022/01/05 11:15:59;;;;;;;5.77;1.87;;;;;;;2.50;85.04;152006.84;5012739;28;20445;-76
2022/01/05 11:18:35;;;;;;;2.17;1.80;;;;;;;2.54;85.07;152017.16;5013960;28;20860;-76
2022/01/05 11:21:11;;;;;;;4.73;2.00;;;;;;;2.57;84.32;152024.88;5013026;28;20951;-76
2022/01/05 11:23:46;;;;;;;4.70;2.30;;;;;;;2.56;82.01;152023.56;5010542;28;20448;-76
2022/01/05 11:26:22;;;;;;;3.43;1.83;;;;;;;2.56;81.23;152022.28;4993351;28;20843;-76
2022/01/05 11:28:58;;;;;;;8.00;2.87;;;;;;;2.47;83.77;152000.41;5008163;28;20417;-75
2022/01/05 11:31:35;;;;;;;3.53;2.17;;;;;;;2.52;84.81;152011.97;5009216;28;20442;-75
2022/01/05 11:34:11;;;;;;;2.40;1.63;;;;;;;2.55;86.88;152019.69;5009244;28;20805;-76
2022/01/05 11:36:46;;;;;;;5.80;1.60;;;;;;;2.47;83.66;152001.69;5009233;28;20542;-76
2022/01/05 11:39:22;;;;;;;5.70;2.03;;;;;;;2.46;82.42;151999.09;5023102;28;20924;-76
2022/01/05 11:42:00;;;;;;;4.53;1.97;;;;;;;2.49;86.18;152004.28;5007495;28;20449;-76
2022/01/05 11:44:44;;;;;;;4.40;2.33;;;;;;;2.54;84.39;152017.16;5009045;28;20455;-76
2022/01/05 11:47:23;;;;;;;3.67;1.77;;;;;;;2.58;83.55;152027.41;5008921;28;20480;-76
2022/01/05 11:50:26;;;;;;;3.67;2.20;;;;;;;2.68;81.69;152053.13;5025389;28;20810;-76
2022/01/05 11:53:06;;;;;;;5.70;2.20;;;;;;;2.75;85.31;152071.16;5008836;28;20458;-76
2022/01/05 11:56:13;;;;;;;2.57;1.83;;;;;;;2.76;84.33;152073.72;4977611;28;20448;-76
2022/01/05 11:58:57;;;;;;;4.40;2.67;;;;;;;2.77;84.23;152076.28;5008516;28;20454;-76
2022/01/05 12:01:37;;;;;;;4.10;2.60;;;;;;;2.83;85.05;152091.75;5023040;28;20836;-76
2022/01/05 12:04:20;;;;;;;5.43;2.17;;;;;;;2.86;84.90;152099.47;4993495;28;20433;-76
2022/01/05 12:07:04;;;;;;;3.03;1.90;;;;;;;2.86;86.75;152099.47;5008847;28;20443;-76
2022/01/05 12:09:41;;;;;;;3.37;1.97;;;;;;;2.86;81.43;152100.72;4993339;28;20537;-76
2022/01/05 12:12:27;;;;;;;2.63;1.70;;;;;;;2.88;83.90;152104.59;5015748;28;21050;-76
2022/01/05 12:15:04;;;;;;;4.00;1.70;;;;;;;2.84;84.47;152095.59;5008665;28;20446;-76